createdAt,value
2023-03-17T00:02:10.196Z,3.99
2023-03-17T00:04:37.025Z,3.84
2023-03-17T00:07:05.592Z,3.84
2023-03-17T00:09:32.310Z,3.86
2023-03-17T00:11:59.357Z,3.81
2023-03-17T00:14:26.088Z,3.85
2023-03-17T00:16:57.066Z,3.71
2023-03-17T00:19:33.082Z,3.71
2023-03-17T00:22:01.042Z,3.62
2023-03-17T00:24:28.600Z,3.48
2023-03-17T00:26:58.243Z,3.47
2023-03-17T00:29:25.559Z,3.47
2023-03-17T00:31:52.956Z,3.41
2023-03-17T00:34:20.670Z,3.40
2023-03-17T00:36:52.965Z,3.35
2023-03-17T00:39:20.084Z,3.34
2023-03-17T00:41:49.994Z,3.43
2023-03-17T00:44:20.519Z,3.37
2023-03-17T00:46:47.500Z,3.48
2023-03-17T00:49:19.960Z,3.44
2023-03-17T00:51:47.483Z,3.37
2023-03-17T00:54:15.588Z,3.33
2023-03-17T00:56:44.357Z,3.24
2023-03-17T00:59:39.249Z,3.30
2023-03-17T01:02:06.284Z,3.29
2023-03-17T01:04:34.021Z,3.28
2023-03-17T01:07:00.762Z,3.32
2023-03-17T01:09:28.364Z,3.31
2023-03-17T01:11:55.781Z,3.34
2023-03-17T01:14:25.970Z,3.42
2023-03-17T01:16:55.901Z,3.45
2023-03-17T01:19:23.052Z,3.39
2023-03-17T01:21:49.712Z,3.40
2023-03-17T01:24:16.490Z,3.46
2023-03-17T01:26:43.313Z,3.46
2023-03-17T01:29:10.030Z,3.40
2023-03-17T01:31:37.418Z,3.34
2023-03-17T01:34:07.022Z,3.28
2023-03-17T01:36:41.532Z,3.23
2023-03-17T01:39:08.177Z,3.26
2023-03-17T01:41:36.673Z,3.37
2023-03-17T01:44:04.242Z,3.25
2023-03-17T01:46:39.429Z,3.28
2023-03-17T01:49:21.336Z,3.21
2023-03-17T01:51:51.769Z,3.22
2023-03-17T01:54:27.226Z,3.25
2023-03-17T01:56:58.814Z,3.16
2023-03-17T01:59:36.940Z,3.33
2023-03-17T02:02:11.125Z,3.28
2023-03-17T02:04:40.441Z,3.25
2023-03-17T02:07:07.783Z,3.19
2023-03-17T02:09:35.434Z,3.23
2023-03-17T02:12:07.075Z,3.17
2023-03-17T02:14:34.236Z,3.18
2023-03-17T02:17:07.063Z,3.17
2023-03-17T02:19:34.287Z,3.06
2023-03-17T02:22:01.468Z,3.00
2023-03-17T02:24:31.023Z,3.06
2023-03-17T02:27:35.880Z,3.04
2023-03-17T02:30:07.302Z,3.00
2023-03-17T02:32:38.644Z,3.04
2023-03-17T02:35:08.415Z,3.02
2023-03-17T02:37:35.339Z,2.98
2023-03-17T02:40:02.778Z,2.99
2023-03-17T02:42:29.433Z,2.96
2023-03-17T02:44:56.055Z,2.99
2023-03-17T02:47:22.653Z,3.00
2023-03-17T02:49:49.892Z,3.03
2023-03-17T02:52:17.043Z,2.97
2023-03-17T02:54:43.738Z,2.90
2023-03-17T02:57:13.504Z,2.99
2023-03-17T02:59:40.539Z,2.94
2023-03-17T03:02:07.331Z,2.93
2023-03-17T03:04:34.044Z,2.98
2023-03-17T03:07:00.769Z,2.94
2023-03-17T03:09:27.692Z,3.01
2023-03-17T03:11:55.040Z,3.12
2023-03-17T03:14:22.036Z,3.06
2023-03-17T03:16:48.704Z,3.14
2023-03-17T03:19:23.314Z,3.18
2023-03-17T03:21:49.935Z,3.20
2023-03-17T03:24:19.342Z,3.20
2023-03-17T03:26:48.722Z,3.16
2023-03-17T03:29:15.410Z,3.17
2023-03-17T03:31:45.538Z,3.18
2023-03-17T03:34:12.176Z,3.15
2023-03-17T03:36:44.638Z,3.14
2023-03-17T03:39:14.223Z,3.19
2023-03-17T03:41:47.490Z,3.24
2023-03-17T03:44:14.239Z,3.20
2023-03-17T03:46:41.038Z,3.18
2023-03-17T03:49:16.716Z,3.22
2023-03-17T03:51:43.356Z,3.28
2023-03-17T03:54:10.220Z,3.26
2023-03-17T03:56:36.898Z,3.23
2023-03-17T03:59:07.652Z,3.26
2023-03-17T04:01:38.892Z,3.23
2023-03-17T04:04:05.802Z,3.28
2023-03-17T04:06:32.809Z,3.23
2023-03-17T04:09:02.349Z,3.23
2023-03-17T04:11:29.479Z,3.23
2023-03-17T04:13:56.165Z,3.15
2023-03-17T04:16:25.519Z,3.09
2023-03-17T04:18:52.176Z,3.03
2023-03-17T04:21:19.169Z,3.07
2023-03-17T04:23:46.642Z,3.03
2023-03-17T04:26:13.766Z,3.04
2023-03-17T04:28:43.133Z,3.07
2023-03-17T04:31:12.474Z,3.04
2023-03-17T04:33:39.646Z,3.03
2023-03-17T04:36:07.830Z,2.96
2023-03-17T04:38:37.745Z,2.94
2023-03-17T04:41:07.289Z,3.02
2023-03-17T04:43:33.921Z,2.96
2023-03-17T04:46:01.001Z,3.08
2023-03-17T04:48:27.670Z,3.06
2023-03-17T04:50:54.317Z,3.01
2023-03-17T04:53:22.502Z,2.99
2023-03-17T04:55:55.368Z,3.03
2023-03-17T04:58:30.385Z,3.01
2023-03-17T05:00:57.767Z,3.01
2023-03-17T05:03:28.271Z,2.99
2023-03-17T05:05:58.411Z,2.86
2023-03-17T05:08:27.370Z,2.83
2023-03-17T05:10:55.200Z,2.94
2023-03-17T05:13:22.534Z,2.95
2023-03-17T05:15:51.848Z,2.91
2023-03-17T05:18:22.926Z,2.93
2023-03-17T05:20:50.042Z,2.95
2023-03-17T05:23:16.767Z,2.99
2023-03-17T05:25:44.137Z,3.06
2023-03-17T05:28:10.816Z,3.10
2023-03-17T05:30:38.009Z,3.10
2023-03-17T05:33:08.412Z,3.07
2023-03-17T05:35:38.475Z,3.06
2023-03-17T05:38:07.744Z,3.03
2023-03-17T05:40:36.171Z,3.03
2023-03-17T05:43:04.023Z,3.07
2023-03-17T05:45:30.836Z,3.04
2023-03-17T05:47:57.930Z,3.09
2023-03-17T05:50:25.397Z,3.21
2023-03-17T05:52:53.415Z,3.16
2023-03-17T05:55:29.438Z,3.14
2023-03-17T05:57:59.509Z,3.18
2023-03-17T06:00:27.107Z,3.19
2023-03-17T06:02:53.721Z,3.27
2023-03-17T06:05:20.394Z,3.26
2023-03-17T06:07:53.349Z,3.35
2023-03-17T06:10:22.005Z,3.36
2023-03-17T06:12:48.665Z,3.36
2023-03-17T06:15:17.693Z,3.34
2023-03-17T06:17:44.596Z,3.39
2023-03-17T06:20:11.984Z,3.44
2023-03-17T06:22:46.270Z,3.52
2023-03-17T06:25:19.023Z,3.55
2023-03-17T06:27:45.757Z,3.56
2023-03-17T06:30:14.026Z,3.61
2023-03-17T06:32:40.757Z,3.61
2023-03-17T06:35:07.798Z,3.65
2023-03-17T06:37:36.276Z,3.68
2023-03-17T06:40:07.118Z,3.73
2023-03-17T06:42:33.821Z,3.74
2023-03-17T06:45:03.784Z,3.79
2023-03-17T06:47:30.787Z,3.79
2023-03-17T06:49:57.506Z,3.86
2023-03-17T06:52:24.277Z,3.84
2023-03-17T06:54:51.609Z,3.86
2023-03-17T06:57:18.285Z,3.89
2023-03-17T06:59:45.912Z,4.04
2023-03-17T07:02:12.840Z,4.20
2023-03-17T07:04:39.690Z,4.28
2023-03-17T07:07:06.406Z,4.32
2023-03-17T07:09:34.539Z,4.33
2023-03-17T07:12:06.093Z,4.50
2023-03-17T07:14:35.665Z,4.58
2023-03-17T07:17:12.559Z,4.73
2023-03-17T07:19:40.751Z,4.72
2023-03-17T07:22:08.269Z,4.76
2023-03-17T07:24:35.033Z,4.76
2023-03-17T07:27:01.720Z,4.86
2023-03-17T07:29:29.405Z,4.97
2023-03-17T07:31:59.018Z,5.08
2023-03-17T07:34:26.088Z,5.15
2023-03-17T07:36:52.720Z,5.22
2023-03-17T07:39:19.382Z,5.35
2023-03-17T07:41:53.059Z,5.78
2023-03-17T07:44:19.937Z,6.16
2023-03-17T07:46:46.710Z,6.44
2023-03-17T07:49:13.352Z,6.72
2023-03-17T07:51:43.242Z,6.78
2023-03-17T07:54:14.833Z,6.80
2023-03-17T07:56:42.567Z,6.80
2023-03-17T07:59:09.266Z,6.62
2023-03-17T08:01:36.077Z,6.51
2023-03-17T08:04:04.952Z,6.50
2023-03-17T08:06:34.329Z,7.20
2023-03-17T08:09:01.256Z,7.67
2023-03-17T08:11:29.454Z,7.77
2023-03-17T08:13:56.306Z,8.15
2023-03-17T08:16:23.134Z,8.21
2023-03-17T08:18:49.997Z,8.80
2023-03-17T08:21:25.583Z,9.22
2023-03-17T08:23:55.986Z,9.71
2023-03-17T08:26:27.115Z,9.67
2023-03-17T08:28:53.947Z,9.64
2023-03-17T08:31:22.772Z,9.45
2023-03-17T08:33:54.693Z,9.36
2023-03-17T08:36:21.765Z,9.23
2023-03-17T08:38:49.000Z,9.39
2023-03-17T08:41:20.649Z,8.98
2023-03-17T08:43:48.287Z,9.05
2023-03-17T08:46:21.222Z,9.50
2023-03-17T08:48:49.788Z,9.93
2023-03-17T08:51:19.067Z,10.47
2023-03-17T08:53:47.254Z,10.21
2023-03-17T08:56:14.636Z,10.48
2023-03-17T08:58:42.728Z,9.45
2023-03-17T09:01:13.415Z,9.40
2023-03-17T09:03:42.524Z,9.38
2023-03-17T09:06:12.530Z,9.15
2023-03-17T09:08:44.843Z,9.22
2023-03-17T09:11:20.623Z,9.35
2023-03-17T09:13:47.898Z,9.42
2023-03-17T09:16:16.382Z,9.60
2023-03-17T09:18:44.140Z,9.70
2023-03-17T09:21:13.386Z,9.97
2023-03-17T09:23:40.192Z,9.98
2023-03-17T09:26:13.052Z,10.28
2023-03-17T09:28:39.960Z,10.26
2023-03-17T09:31:11.545Z,10.15
2023-03-17T09:33:42.049Z,10.18
2023-03-17T09:36:12.956Z,10.27
2023-03-17T09:38:39.799Z,10.65
2023-03-17T09:41:19.901Z,11.34
2023-03-17T09:44:04.963Z,11.26
2023-03-17T09:47:02.582Z,11.50
2023-03-17T09:49:42.530Z,11.87
2023-03-17T09:52:21.746Z,12.32
2023-03-17T09:54:51.621Z,12.72
2023-03-17T09:57:27.117Z,13.32
2023-03-17T10:00:24.366Z,13.40
2023-03-17T10:02:52.034Z,13.63
2023-03-17T10:05:19.853Z,13.28
2023-03-17T10:07:59.838Z,13.63
2023-03-17T10:10:39.637Z,13.81
2023-03-17T10:13:18.240Z,13.96
2023-03-17T10:15:58.890Z,13.81
2023-03-17T10:18:30.430Z,13.53
2023-03-17T10:21:03.554Z,13.58
2023-03-17T10:23:33.571Z,13.14
2023-03-17T10:26:07.660Z,13.11
2023-03-17T10:28:39.205Z,13.23
2023-03-17T10:31:19.645Z,12.90
2023-03-17T10:33:56.932Z,12.82
2023-03-17T10:36:51.596Z,12.47
2023-03-17T10:39:24.712Z,12.66
2023-03-17T10:42:09.459Z,12.72
2023-03-17T10:44:45.120Z,12.76
2023-03-17T10:47:34.428Z,13.09
2023-03-17T10:50:22.088Z,13.22
2023-03-17T10:53:13.105Z,13.08
2023-03-17T10:55:52.914Z,12.78
2023-03-17T10:58:38.807Z,12.87
2023-03-17T11:01:16.292Z,12.78
2023-03-17T11:03:43.114Z,13.06
2023-03-17T11:06:22.647Z,13.09
2023-03-17T11:08:53.895Z,13.01
2023-03-17T11:12:04.545Z,13.00
2023-03-17T11:14:31.391Z,13.21
2023-03-17T11:17:01.550Z,13.48
2023-03-17T11:20:11.570Z,13.64
2023-03-17T11:22:42.147Z,13.56
2023-03-17T11:25:16.219Z,13.52
2023-03-17T11:27:49.380Z,13.48
2023-03-17T11:30:36.501Z,13.33
2023-03-17T11:33:24.699Z,13.51
2023-03-17T11:36:06.729Z,13.40
2023-03-17T11:38:43.411Z,13.28
2023-03-17T11:41:36.394Z,13.16
2023-03-17T11:44:23.590Z,12.93
2023-03-17T11:47:15.912Z,13.11
2023-03-17T11:49:46.180Z,13.12
2023-03-17T11:52:30.077Z,13.30
2023-03-17T11:55:02.521Z,13.61
2023-03-17T11:57:53.832Z,13.60
2023-03-17T12:00:27.625Z,13.83
2023-03-17T12:03:15.804Z,13.76
2023-03-17T12:05:45.524Z,13.88
2023-03-17T12:08:24.959Z,13.85
2023-03-17T12:10:55.770Z,13.77
2023-03-17T12:13:40.277Z,13.75
2023-03-17T12:16:23.103Z,13.77
2023-03-17T12:19:03.562Z,13.71
2023-03-17T12:21:47.666Z,13.87
2023-03-17T12:24:40.017Z,14.12
2023-03-17T12:27:16.956Z,14.32
2023-03-17T12:29:52.680Z,14.27
2023-03-17T12:32:39.545Z,14.41
2023-03-17T12:35:15.659Z,14.21
2023-03-17T12:37:46.735Z,14.54
2023-03-17T12:40:25.210Z,14.69
2023-03-17T12:43:31.831Z,14.62
2023-03-17T12:46:23.275Z,14.88
2023-03-17T12:48:54.986Z,14.71
2023-03-17T12:51:46.138Z,14.60
2023-03-17T12:54:22.203Z,14.54
2023-03-17T12:56:50.518Z,14.59
2023-03-17T12:59:21.300Z,14.48
2023-03-17T13:02:29.388Z,14.24
2023-03-17T13:05:10.401Z,14.19
2023-03-17T13:07:52.906Z,14.29
2023-03-17T13:10:29.513Z,14.52
2023-03-17T13:13:13.133Z,14.51
2023-03-17T13:15:39.858Z,14.53
2023-03-17T13:18:18.636Z,14.34
2023-03-17T13:20:54.384Z,14.44
2023-03-17T13:23:38.613Z,14.27
2023-03-17T13:26:08.111Z,14.32
2023-03-17T13:28:40.057Z,14.18
2023-03-17T13:31:31.405Z,14.29
2023-03-17T13:34:16.642Z,14.16
2023-03-17T13:37:07.271Z,14.10
2023-03-17T13:39:42.904Z,14.11
2023-03-17T13:42:28.448Z,14.14
2023-03-17T13:45:20.805Z,13.97
2023-03-17T13:47:49.729Z,13.99
2023-03-17T13:50:33.107Z,13.89
2023-03-17T13:53:10.465Z,13.99
2023-03-17T13:55:42.996Z,14.06
2023-03-17T13:58:11.648Z,14.14
2023-03-17T14:00:41.778Z,14.25
2023-03-17T14:03:19.605Z,14.05
2023-03-17T14:05:52.882Z,14.20
2023-03-17T14:08:34.726Z,14.21
2023-03-17T14:11:06.737Z,14.30
2023-03-17T14:13:49.503Z,14.35
2023-03-17T14:16:28.116Z,14.46
2023-03-17T14:19:00.919Z,14.52
2023-03-17T14:21:36.661Z,14.24
2023-03-17T14:24:22.115Z,14.17
2023-03-17T14:27:07.123Z,14.23
2023-03-17T14:29:39.780Z,14.23
2023-03-17T14:32:13.545Z,14.01
2023-03-17T14:34:59.585Z,14.10
2023-03-17T14:37:27.480Z,14.02
2023-03-17T14:39:57.672Z,14.01
2023-03-17T14:42:30.164Z,14.02
2023-03-17T14:45:05.148Z,14.11
2023-03-17T14:47:44.607Z,14.08
2023-03-17T14:50:20.774Z,14.15
2023-03-17T14:52:50.090Z,14.08
2023-03-17T14:55:19.821Z,14.13
2023-03-17T14:57:54.038Z,14.18
2023-03-17T15:00:34.669Z,14.06
2023-03-17T15:03:05.794Z,14.04
2023-03-17T15:05:42.066Z,13.99
2023-03-17T15:08:46.215Z,13.77
2023-03-17T15:11:43.317Z,13.75
2023-03-17T15:14:26.047Z,13.85
2023-03-17T15:16:55.197Z,13.69
2023-03-17T15:19:34.761Z,13.57
2023-03-17T15:22:08.000Z,13.58
2023-03-17T15:25:01.017Z,13.53
2023-03-17T15:27:32.126Z,13.52
2023-03-17T15:29:59.083Z,13.47
2023-03-17T15:32:30.072Z,13.40
2023-03-17T15:34:57.214Z,13.39
2023-03-17T15:37:29.188Z,13.33
2023-03-17T15:39:57.129Z,13.30
2023-03-17T15:42:27.543Z,13.28
2023-03-17T15:44:55.174Z,13.16
2023-03-17T15:47:25.659Z,13.13
2023-03-17T15:50:00.254Z,13.06
2023-03-17T15:52:30.093Z,13.02
2023-03-17T15:55:01.005Z,13.06
2023-03-17T15:57:28.143Z,13.01
2023-03-17T15:59:54.765Z,12.90
2023-03-17T16:02:35.627Z,12.89
2023-03-17T16:05:12.160Z,12.83
2023-03-17T16:07:38.898Z,12.82
2023-03-17T16:10:16.759Z,12.82
2023-03-17T16:12:43.501Z,12.75
2023-03-17T16:15:22.440Z,12.66
2023-03-17T16:17:52.680Z,12.59
2023-03-17T16:20:36.159Z,12.58
2023-03-17T16:23:30.857Z,12.50
2023-03-17T16:26:08.179Z,12.46
2023-03-17T16:28:40.858Z,12.38
2023-03-17T16:31:22.633Z,12.43
2023-03-17T16:33:50.882Z,12.35
2023-03-17T16:36:19.492Z,12.22
2023-03-17T16:38:49.174Z,12.04
2023-03-17T16:41:34.628Z,12.05
2023-03-17T16:44:02.704Z,11.99
2023-03-17T16:46:36.284Z,12.00
2023-03-17T16:49:04.297Z,12.01
2023-03-17T16:51:31.023Z,11.94
2023-03-17T16:53:57.676Z,11.84
2023-03-17T16:56:27.930Z,11.62
2023-03-17T16:58:54.944Z,11.71
2023-03-17T17:01:25.125Z,11.67
2023-03-17T17:03:52.096Z,11.58
2023-03-17T17:06:23.645Z,11.50
2023-03-17T17:08:53.817Z,11.49
2023-03-17T17:11:24.011Z,11.46
2023-03-17T17:13:51.811Z,11.44
2023-03-17T17:16:34.661Z,11.31
2023-03-17T17:19:03.832Z,11.20
2023-03-17T17:21:32.070Z,11.28
2023-03-17T17:24:11.176Z,11.21
2023-03-17T17:26:38.189Z,11.16
2023-03-17T17:29:10.295Z,11.23
2023-03-17T17:31:37.029Z,11.15
2023-03-17T17:34:10.092Z,11.08
2023-03-17T17:36:39.951Z,11.02
2023-03-17T17:39:06.890Z,10.98
2023-03-17T17:41:34.463Z,10.86
2023-03-17T17:44:01.199Z,10.86
2023-03-17T17:46:28.605Z,10.86
2023-03-17T17:48:56.264Z,10.79
2023-03-17T17:51:22.883Z,10.66
2023-03-17T17:53:49.560Z,10.68
2023-03-17T17:56:17.821Z,10.73
2023-03-17T17:58:45.156Z,10.74
2023-03-17T18:01:14.217Z,10.73
2023-03-17T18:03:43.046Z,10.75
2023-03-17T18:06:10.340Z,10.67
2023-03-17T18:08:37.175Z,10.72
2023-03-17T18:11:03.998Z,10.66
2023-03-17T18:13:30.658Z,10.64
2023-03-17T18:16:02.081Z,10.50
2023-03-17T18:18:28.711Z,10.38
2023-03-17T18:20:55.809Z,10.35
2023-03-17T18:23:23.087Z,10.33
2023-03-17T19:45:36.477Z,9.91
2023-03-17T19:48:03.588Z,9.90
2023-03-17T19:50:31.002Z,9.85
2023-03-17T19:52:57.752Z,9.84
2023-03-17T19:55:29.648Z,9.88
2023-03-17T19:57:56.761Z,9.85
2023-03-17T20:00:24.860Z,9.87
2023-03-17T20:02:51.719Z,9.83
2023-03-17T20:05:18.535Z,9.87
2023-03-17T20:07:46.503Z,9.76
2023-03-17T20:10:16.175Z,9.72
2023-03-17T20:12:43.513Z,9.64
2023-03-17T20:15:16.054Z,9.59
2023-03-17T20:17:43.407Z,9.57
2023-03-17T20:20:14.648Z,9.59
2023-03-17T20:22:43.920Z,9.56
2023-03-17T20:25:11.021Z,9.54
2023-03-17T20:27:40.772Z,9.53
2023-03-17T20:30:09.658Z,9.40
2023-03-17T20:32:36.338Z,9.45
2023-03-17T20:35:03.465Z,9.45
2023-03-17T20:37:30.953Z,9.41
2023-03-17T20:40:05.616Z,9.37
2023-03-17T20:42:32.292Z,9.48
2023-03-17T20:44:59.161Z,9.47
2023-03-17T20:47:29.727Z,9.59
2023-03-17T20:49:58.866Z,9.68
2023-03-17T20:52:29.965Z,9.60
2023-03-17T20:54:57.078Z,9.56
2023-03-17T20:57:23.733Z,9.56
2023-03-17T20:59:52.025Z,9.61
2023-03-17T21:02:19.242Z,9.54
2023-03-17T21:04:56.971Z,9.50
2023-03-17T21:07:23.675Z,9.46
2023-03-17T21:09:51.647Z,9.35
2023-03-17T21:12:23.349Z,9.26
2023-03-17T21:14:50.737Z,9.15
2023-03-17T21:17:18.170Z,9.01
2023-03-17T21:19:44.844Z,8.86
2023-03-17T21:22:12.485Z,8.78
2023-03-17T21:24:40.025Z,8.81
2023-03-17T21:27:17.346Z,8.83
2023-03-17T21:29:51.212Z,8.77
2023-03-17T21:32:17.895Z,8.81
2023-03-17T21:34:45.164Z,8.85
2023-03-17T21:37:12.022Z,8.79
2023-03-17T21:39:38.752Z,8.71
2023-03-17T21:42:09.793Z,8.57
2023-03-17T21:44:36.477Z,8.45
2023-03-17T21:47:03.159Z,8.43
2023-03-17T21:49:29.808Z,8.39
2023-03-17T21:51:57.235Z,8.22
2023-03-17T21:54:24.536Z,8.16
2023-03-17T21:56:52.337Z,8.06
2023-03-17T21:59:21.054Z,8.05
2023-03-17T22:02:00.654Z,8.06
2023-03-17T22:04:28.566Z,7.88
2023-03-17T22:06:56.061Z,7.92
2023-03-17T22:09:22.702Z,7.96
2023-03-17T22:11:58.355Z,7.93
2023-03-17T22:14:25.010Z,7.90
2023-03-17T22:16:53.333Z,7.92
2023-03-17T22:19:22.604Z,7.83
2023-03-17T22:21:49.948Z,7.81
2023-03-17T22:24:17.391Z,7.71
2023-03-17T22:26:50.687Z,7.65
2023-03-17T22:29:18.744Z,7.68
2023-03-17T22:31:45.749Z,7.66
2023-03-17T22:34:12.826Z,7.69
2023-03-17T22:36:39.583Z,7.62
2023-03-17T22:39:08.948Z,7.55
2023-03-17T22:41:36.029Z,7.52
2023-03-17T22:44:03.890Z,7.49
2023-03-17T22:46:30.778Z,7.53
2023-03-17T22:49:00.236Z,7.38
2023-03-17T22:51:27.119Z,7.37
2023-03-17T22:53:54.545Z,7.32
2023-03-17T22:56:21.437Z,7.29
2023-03-17T22:58:48.248Z,7.27
2023-03-17T23:01:16.714Z,7.30
2023-03-17T23:03:43.997Z,7.27
2023-03-17T23:06:17.843Z,7.24
2023-03-17T23:08:45.939Z,7.26
2023-03-17T23:11:21.301Z,7.35
2023-03-17T23:13:49.129Z,7.44
2023-03-17T23:16:16.665Z,7.42
2023-03-17T23:18:46.535Z,7.47
2023-03-17T23:21:22.745Z,7.44
2023-03-17T23:23:49.802Z,7.45
2023-03-17T23:26:16.778Z,7.48
2023-03-17T23:28:46.600Z,7.43
2023-03-17T23:31:14.631Z,7.49
2023-03-17T23:33:42.759Z,7.46
2023-03-17T23:36:09.929Z,7.42
2023-03-17T23:38:36.759Z,7.44
2023-03-17T23:41:03.719Z,7.49
2023-03-17T23:43:30.976Z,7.40
2023-03-17T23:45:58.658Z,7.40
2023-03-17T23:48:25.631Z,7.34
2023-03-17T23:50:53.655Z,7.43
2023-03-17T23:53:21.869Z,7.40
2023-03-17T23:55:49.425Z,7.41
2023-03-17T23:58:15.987Z,7.43
